P/v Golden Gate — WDE5665 — position and weather

sailwx.info

Track history (hours):
 
Tides and Currents Weather Stations Pressure Air Temp Water Temp Dewpoint Dewpoint Depression Visibility Wind Speed Wind Dir Waves Ship Positions

P/v Golden Gate

Owner: San Francisco Bar Pilots Benevolent and Protective, San Francisco, CA. More information available from US FCC via Universal Licensing System and Coast Guard Vessel Documentation Center.

Last reported at 2014-Nov-01 10:33 UTC. Time now 2014-Nov-01 11:17 UTC.
Position N 37°48' W 122°24'.

Length 23 m; draft 2 m.

Type: Pilot. MMSI: 367370010.

Date/timePositionNaut miles runAvg speedWind from/ knotsBaromVisibWave heightAir tempDewpointWater temp
2014-Nov-01 10:33N 37°48' W 122°24'2 2.5
2014-Nov-01 09:34N 37°46' W 122°22'2 2.5
2014-Nov-01 08:33N 37°48' W 122°24'0 0.0
2014-Nov-01 07:33N 37°48' W 122°24'4 4.4
2014-Nov-01 06:33N 37°52' W 122°25'4 4.4
2014-Nov-01 05:33N 37°48' W 122°24'3 2.9
2014-Nov-01 04:33N 37°46' W 122°21'3 2.9
2014-Nov-01 03:33N 37°48' W 122°24'0 0.0
2014-Nov-01 02:33N 37°48' W 122°24'4 4.0
2014-Nov-01 01:33N 37°45' W 122°21'4 4.0
2014-Nov-01 00:33N 37°48' W 122°24'0 0.0
2014-Oct-31 23:33N 37°48' W 122°24'3 3.4
2014-Oct-31 22:33N 37°49' W 122°20'3 3.4
2014-Oct-31 21:33N 37°48' W 122°24'0 0.0
2014-Oct-31 20:33N 37°48' W 122°24'0 0.0
2014-Oct-31 19:33N 37°48' W 122°24'0 0.0
2014-Oct-31 18:33N 37°48' W 122°24'0 0.0
2014-Oct-31 17:33N 37°48' W 122°24'0 0.0
2014-Oct-31 16:33N 37°48' W 122°24'1 1.3
2014-Oct-31 15:33N 37°48' W 122°22'1 1.3
2014-Oct-31 14:33N 37°48' W 122°24'3 2.5
2014-Oct-31 13:33N 37°48' W 122°21'3 2.6
2014-Oct-31 12:34N 37°48' W 122°24'0 0.3
2014-Oct-31 11:33N 37°48' W 122°24'0 0.0
2014-Oct-31 10:33N 37°48' W 122°24'0 0.0
2014-Oct-31 09:33N 37°48' W 122°24'0 0.0
2014-Oct-31 08:33N 37°48' W 122°24'0 0.0
2014-Oct-31 07:33N 37°48' W 122°24'4 3.9
2014-Oct-31 06:33N 37°48' W 122°19'4 3.9
2014-Oct-31 05:33N 37°48' W 122°24'0 0.0
2014-Oct-31 04:33N 37°48' W 122°24'0 0.0
2014-Oct-31 03:33N 37°48' W 122°24'0 0.0
2014-Oct-31 02:33N 37°48' W 122°24'0 0.0
2014-Oct-31 01:33N 37°48' W 122°24'0 0.0
2014-Oct-31 00:33N 37°48' W 122°24'0 0.0
2014-Oct-30 23:34N 37°48' W 122°24'0 0.0
2014-Oct-30 22:34N 37°48' W 122°24'3 3.1
2014-Oct-30 21:34N 37°46' W 122°21'3 3.1
2014-Oct-30 20:33N 37°48' W 122°24'0 0.0
2014-Oct-30 19:33N 37°48' W 122°24'0 0.0
2014-Oct-30 18:33N 37°48' W 122°24'5 5.3
2014-Oct-30 17:33N 37°48' W 122°30'4 4.2
2014-Oct-30 16:33N 37°49' W 122°25'5 5.1
2014-Oct-30 15:33N 37°49' W 122°19'5 4.7
2014-Oct-30 14:33N 37°49' W 122°25'5 5.4
2014-Oct-30 13:34N 37°44' W 122°21'4 4.3
2014-Oct-30 12:33N 37°48' W 122°24'1 1.1
2014-Oct-30 11:33N 37°48' W 122°22'9 9.1
2014-Oct-30 10:33N 37°47' W 122°34'8 8.0
2014-Oct-30 09:34N 37°48' W 122°24'0 0.0
2014-Oct-30 08:33N 37°48' W 122°24'0 0.0
2014-Oct-30 07:33N 37°48' W 122°24'3 3.4
2014-Oct-30 06:34N 37°45' W 122°21'3 3.4
2014-Oct-30 05:33N 37°48' W 122°24'0 0.0
2014-Oct-30 04:33N 37°48' W 122°24'3 2.7
2014-Oct-30 03:34N 37°49' W 122°20'1515.4
2014-Oct-30 02:33N 37°46' W 122°40'1616.2
2014-Oct-30 01:34N 37°49' W 122°19'4 3.6
2014-Oct-30 00:33N 37°48' W 122°24'5 4.7
2014-Oct-29 23:33N 37°48' W 122°18'3 3.2
2014-Oct-29 22:34N 37°46' W 122°21'3 2.7
2014-Oct-29 21:33N 37°48' W 122°24'0 0.0
2014-Oct-29 20:33N 37°48' W 122°24'0 0.0
2014-Oct-29 19:33N 37°48' W 122°24'0 0.0
2014-Oct-29 18:33N 37°48' W 122°24'0 0.0
2014-Oct-29 17:15N 37°48' W 122°24'0 0.0
2014-Oct-29 16:34N 37°48' W 122°24'0 0.0
2014-Oct-29 15:33N 37°48' W 122°24'0 0.0
2014-Oct-29 14:33N 37°48' W 122°24'0 0.0
2014-Oct-29 13:33N 37°48' W 122°24'0 0.0
2014-Oct-29 12:33N 37°48' W 122°24'0 0.0
2014-Oct-29 11:34N 37°48' W 122°24'1 1.2
2014-Oct-29 10:33N 37°47' W 122°23'1 1.2
2014-Oct-29 09:33N 37°48' W 122°24'0 0.0
2014-Oct-29 08:32N 37°48' W 122°24'3 2.9
2014-Oct-29 07:33N 37°49' W 122°20'3 2.9
2014-Oct-29 06:33N 37°48' W 122°24'0 0.0
2014-Oct-29 05:33N 37°48' W 122°24'0 0.0
2014-Oct-29 04:33N 37°48' W 122°24'0 0.0
2014-Oct-29 03:33N 37°48' W 122°24'2 1.6
2014-Oct-29 02:34N 37°47' W 122°22'2 1.6
2014-Oct-29 01:33N 37°48' W 122°24'1 0.6
2014-Oct-29 00:34N 37°48' W 122°23'1 0.7
2014-Oct-28 23:33N 37°49' W 122°23'1 1.1
2014-Oct-28 22:33N 37°48' W 122°24'0 0.0
2014-Oct-28 21:33N 37°48' W 122°24'0 0.0
2014-Oct-28 20:33N 37°48' W 122°24'0 0.0
2014-Oct-28 19:33N 37°48' W 122°24'0 0.0
2014-Oct-28 18:33N 37°48' W 122°24'0 0.0
2014-Oct-28 17:33N 37°48' W 122°24'0 0.0
2014-Oct-28 16:33N 37°48' W 122°24'0 0.0
2014-Oct-28 15:33N 37°48' W 122°24'0 0.0
2014-Oct-28 14:33N 37°48' W 122°24'2 1.8
2014-Oct-28 13:33N 37°47' W 122°22'2 1.8
2014-Oct-28 12:33N 37°48' W 122°24'0 0.0
2014-Oct-28 11:33N 37°48' W 122°24'0 0.0
2014-Oct-28 10:33N 37°48' W 122°24'0 0.0
2014-Oct-28 09:33N 37°48' W 122°24'2 2.1
2014-Oct-28 08:33N 37°48' W 122°21'2 1.8
2014-Oct-28 07:33N 37°48' W 122°23'0 0.4
2014-Oct-28 06:33N 37°48' W 122°24'0 0.0
2014-Oct-28 05:33N 37°48' W 122°24'0 0.0
2014-Oct-28 04:33N 37°48' W 122°24'3 2.8
2014-Oct-28 03:34N 37°49' W 122°20'3 2.6
2014-Oct-28 02:33N 37°46' W 122°22'8 7.6
2014-Oct-28 01:33N 37°48' W 122°31'4 3.9
2014-Oct-28 00:34N 37°49' W 122°26'4 3.8
2014-Oct-27 23:33N 37°48' W 122°22'3 2.9
2014-Oct-27 22:33N 37°49' W 122°25'5 5.0
2014-Oct-27 21:33N 37°48' W 122°31'8 7.9
2014-Oct-27 20:33N 37°48' W 122°21'2 1.9
2014-Oct-27 19:34N 37°48' W 122°24'2 2.0
2014-Oct-27 18:33N 37°47' W 122°21'3 3.2
2014-Oct-27 17:33N 37°49' W 122°25'2 1.6
2014-Oct-27 16:34N 37°48' W 122°23'0 0.3
2014-Oct-27 15:33N 37°48' W 122°24'0 0.0
2014-Oct-27 14:34N 37°48' W 122°24'0 0.0
2014-Oct-27 13:34N 37°48' W 122°24'2 2.4
2014-Oct-27 12:33N 37°48' W 122°21'2 2.4
2014-Oct-27 11:33N 37°48' W 122°24'0 0.0
2014-Oct-27 10:33N 37°48' W 122°24'0 0.0
2014-Oct-27 09:33N 37°48' W 122°24'5 4.8
2014-Oct-27 08:33N 37°44' W 122°20'5 4.8
2014-Oct-27 07:33N 37°48' W 122°24'0 0.0
2014-Oct-27 06:33N 37°48' W 122°24'2 2.1
2014-Oct-27 05:33N 37°48' W 122°21'2 2.1
2014-Oct-27 04:33N 37°48' W 122°24'2 2.5
2014-Oct-27 03:33N 37°46' W 122°22'2 2.5
2014-Oct-27 02:33N 37°48' W 122°24'3 2.8
2014-Oct-27 01:34N 37°48' W 122°20'3 2.8
2014-Oct-27 00:34N 37°48' W 122°24'0 0.0
2014-Oct-26 23:33N 37°48' W 122°24'2 1.9
2014-Oct-26 22:34N 37°48' W 122°21'2 1.9
2014-Oct-26 21:33N 37°48' W 122°24'3 3.2
2014-Oct-26 20:33N 37°48' W 122°20'3 3.2
2014-Oct-26 19:33N 37°48' W 122°24'0 0.0
2014-Oct-26 18:33N 37°48' W 122°24'0 0.0
2014-Oct-26 17:33N 37°48' W 122°24'0 0.0
2014-Oct-26 16:33N 37°48' W 122°24'0 0.0
2014-Oct-26 15:34N 37°48' W 122°24'0 0.0
2014-Oct-26 14:33N 37°48' W 122°24'3 2.5
2014-Oct-26 13:34N 37°48' W 122°21'3 2.5
2014-Oct-26 12:34N 37°48' W 122°24'0 0.0
2014-Oct-26 11:34N 37°48' W 122°24'0 0.0
2014-Oct-26 10:34N 37°48' W 122°24'0 0.0
2014-Oct-26 09:34N 37°48' W 122°24'0 0.0
2014-Oct-26 08:33N 37°48' W 122°24'1 1.0
2014-Oct-26 07:34N 37°47' W 122°23'1 1.0
2014-Oct-26 06:33N 37°48' W 122°24'3 3.4
2014-Oct-26 05:33N 37°46' W 122°21'3 3.4
2014-Oct-26 04:33N 37°48' W 122°24'0 0.0
2014-Oct-26 03:33N 37°48' W 122°24'3 3.2
2014-Oct-26 02:33N 37°48' W 122°20'2 1.8
2014-Oct-26 01:33N 37°48' W 122°22'1 1.4
2014-Oct-26 00:34N 37°49' W 122°20'3 2.9
2014-Oct-25 23:34N 37°48' W 122°24'0 0.4
2014-Oct-25 22:33N 37°48' W 122°24'0 0.4
2014-Oct-25 21:34N 37°48' W 122°24'0 0.0
2014-Oct-25 20:34N 37°48' W 122°24'3 3.4
2014-Oct-25 19:34N 37°46' W 122°20'3 3.4
2014-Oct-25 18:33N 37°48' W 122°24'0 0.0
2014-Oct-25 17:33N 37°48' W 122°24'1 1.3
2014-Oct-25 16:34N 37°49' W 122°25'1 1.3
2014-Oct-25 15:33N 37°48' W 122°24'0 0.0
2014-Oct-25 14:33N 37°48' W 122°24'0 0.0
2014-Oct-25 13:33N 37°48' W 122°24'0 0.0
2014-Oct-25 12:33N 37°48' W 122°24'3 3.4
2014-Oct-25 11:34N 37°46' W 122°21'3 3.4
2014-Oct-25 10:33N 37°48' W 122°24'4 3.7
2014-Oct-25 09:33N 37°46' W 122°20'4 3.7
2014-Oct-25 08:34N 37°48' W 122°24'0 0.0
2014-Oct-25 07:34N 37°48' W 122°24'0 0.0
2014-Oct-25 06:33N 37°48' W 122°24'0 0.0
2014-Oct-25 05:34N 37°48' W 122°24'0 0.1
2014-Oct-25 04:33N 37°48' W 122°24'0 0.0
2014-Oct-25 03:33N 37°48' W 122°24'3 3.2
2014-Oct-25 02:33N 37°46' W 122°20'1110.8
2014-Oct-25 01:34N 37°47' W 122°34'8 8.1
2014-Oct-25 00:34N 37°48' W 122°24'1 0.6
2014-Oct-24 23:33N 37°49' W 122°24'1 0.6
2014-Oct-24 22:34N 37°48' W 122°24'0 0.0
2014-Oct-24 21:33N 37°48' W 122°24'0 0.0
2014-Oct-24 20:33N 37°48' W 122°24'0 0.0
2014-Oct-24 19:33N 37°48' W 122°24'0 0.0
2014-Oct-24 18:33N 37°48' W 122°24'1110.8
2014-Oct-24 17:34N 37°46' W 122°37'1212.2
2014-Oct-24 16:33N 37°46' W 122°22'2 2.3
2014-Oct-24 15:33N 37°48' W 122°21'4 3.8
2014-Oct-24 14:33N 37°44' W 122°21'4 3.8
2014-Oct-24 13:33N 37°48' W 122°19'4 4.0
2014-Oct-24 12:33N 37°48' W 122°24'0 0.0
2014-Oct-24 11:33N 37°48' W 122°24'0 0.0
2014-Oct-24 10:33N 37°48' W 122°24'0 0.0
2014-Oct-24 09:33N 37°48' W 122°24'0 0.0
2014-Oct-24 08:33N 37°48' W 122°24'0 0.0
2014-Oct-24 07:33N 37°48' W 122°24'0 0.0
2014-Oct-24 06:33N 37°48' W 122°24'0 0.0
2014-Oct-24 05:33N 37°48' W 122°24'0 0.0
2014-Oct-24 04:33N 37°48' W 122°24'1 1.0
2014-Oct-24 03:33N 37°47' W 122°23'1 1.0
2014-Oct-24 02:33N 37°48' W 122°24'4 3.8
2014-Oct-24 01:33N 37°49' W 122°19'4 3.8
2014-Oct-24 00:33N 37°48' W 122°24'2 2.4
2014-Oct-23 23:33N 37°48' W 122°21'7 7.3
2014-Oct-23 22:33N 37°48' W 122°30'5 4.9
2014-Oct-23 21:33N 37°49' W 122°24'1 0.7
2014-Oct-23 20:33N 37°48' W 122°24'3 3.3
2014-Oct-23 19:34N 37°51' W 122°26'1111.1
2014-Oct-23 18:33N 37°45' W 122°39'1212.2
2014-Oct-23 17:33N 37°48' W 122°24'0 0.0
2014-Oct-23 16:33N 37°48' W 122°24'1 1.2
2014-Oct-23 15:32N 37°49' W 122°25'7 6.5
2014-Oct-23 14:26N 37°47' W 122°34'1213.6
2014-Oct-23 13:33N 37°48' W 122°19'2 2.1
2014-Oct-23 12:33N 37°47' W 122°21'2 1.6
2014-Oct-23 11:33N 37°48' W 122°21'1110.7
2014-Oct-23 10:33N 37°47' W 122°35'9 8.8
2014-Oct-23 09:33N 37°48' W 122°24'2 1.9
2014-Oct-23 08:33N 37°48' W 122°21'2 1.9
2014-Oct-23 07:33N 37°48' W 122°24'0 0.0
2014-Oct-23 06:33N 37°48' W 122°24'0 0.0
2014-Oct-23 05:33N 37°48' W 122°24'0 0.0
2014-Oct-23 04:34N 37°48' W 122°24'0 0.0
2014-Oct-23 03:33N 37°48' W 122°24'7 7.3
2014-Oct-23 02:33N 37°47' W 122°33'10 9.6
2014-Oct-23 01:33N 37°46' W 122°21'1 0.6
2014-Oct-23 00:33N 37°47' W 122°22'3 3.4
2014-Oct-22 23:34N 37°49' W 122°24'9 8.9
2014-Oct-22 22:33N 37°46' W 122°35'8 8.4
2014-Oct-22 21:33N 37°49' W 122°25'2 2.2
2014-Oct-22 20:33N 37°48' W 122°23'1 1.0
2014-Oct-22 19:33N 37°48' W 122°24'1 1.5
2014-Oct-22 18:33N 37°48' W 122°22'1 1.2
2014-Oct-22 17:33N 37°47' W 122°22'2 1.5
2014-Oct-22 16:33N 37°48' W 122°24'0 0.0
2014-Oct-22 15:34N 37°48' W 122°24'8 7.8
2014-Oct-22 14:33N 37°47' W 122°34'8 7.8
2014-Oct-22 13:33N 37°48' W 122°24'0 0.0
2014-Oct-22 12:33N 37°48' W 122°24'1 1.3
2014-Oct-22 11:34N 37°47' W 122°22'  
Track history (hours):
 
Tides and Currents Weather Stations Pressure Air Temp Water Temp Dewpoint Dewpoint Depression Visibility Wind Speed Wind Dir Waves Ship Positions

P/v Golden Gate

Owner: San Francisco Bar Pilots Benevolent and Protective, San Francisco, CA. More information available from US FCC via Universal Licensing System and Coast Guard Vessel Documentation Center.

Last reported at 2014-Nov-01 10:33 UTC. Time now 2014-Nov-01 11:17 UTC.
Position N 37°48' W 122°24'.

Length 23 m; draft 2 m.

Type: Pilot. MMSI: 367370010.

Date/timePositionNaut miles runAvg speedWind from/ knotsBaromVisibWave heightAir tempDewpointWater temp
2014-Nov-01 10:33N 37°48' W 122°24'2 2.5
2014-Nov-01 09:34N 37°46' W 122°22'2 2.5
2014-Nov-01 08:33N 37°48' W 122°24'0 0.0
2014-Nov-01 07:33N 37°48' W 122°24'4 4.4
2014-Nov-01 06:33N 37°52' W 122°25'4 4.4
2014-Nov-01 05:33N 37°48' W 122°24'3 2.9
2014-Nov-01 04:33N 37°46' W 122°21'3 2.9
2014-Nov-01 03:33N 37°48' W 122°24'0 0.0
2014-Nov-01 02:33N 37°48' W 122°24'4 4.0
2014-Nov-01 01:33N 37°45' W 122°21'4 4.0
2014-Nov-01 00:33N 37°48' W 122°24'0 0.0
2014-Oct-31 23:33N 37°48' W 122°24'3 3.4
2014-Oct-31 22:33N 37°49' W 122°20'3 3.4
2014-Oct-31 21:33N 37°48' W 122°24'0 0.0
2014-Oct-31 20:33N 37°48' W 122°24'0 0.0
2014-Oct-31 19:33N 37°48' W 122°24'0 0.0
2014-Oct-31 18:33N 37°48' W 122°24'0 0.0
2014-Oct-31 17:33N 37°48' W 122°24'0 0.0
2014-Oct-31 16:33N 37°48' W 122°24'1 1.3
2014-Oct-31 15:33N 37°48' W 122°22'1 1.3
2014-Oct-31 14:33N 37°48' W 122°24'3 2.5
2014-Oct-31 13:33N 37°48' W 122°21'3 2.6
2014-Oct-31 12:34N 37°48' W 122°24'0 0.3
2014-Oct-31 11:33N 37°48' W 122°24'0 0.0
2014-Oct-31 10:33N 37°48' W 122°24'0 0.0
2014-Oct-31 09:33N 37°48' W 122°24'0 0.0
2014-Oct-31 08:33N 37°48' W 122°24'0 0.0
2014-Oct-31 07:33N 37°48' W 122°24'4 3.9
2014-Oct-31 06:33N 37°48' W 122°19'4 3.9
2014-Oct-31 05:33N 37°48' W 122°24'0 0.0
2014-Oct-31 04:33N 37°48' W 122°24'0 0.0
2014-Oct-31 03:33N 37°48' W 122°24'0 0.0
2014-Oct-31 02:33N 37°48' W 122°24'0 0.0
2014-Oct-31 01:33N 37°48' W 122°24'0 0.0
2014-Oct-31 00:33N 37°48' W 122°24'0 0.0
2014-Oct-30 23:34N 37°48' W 122°24'0 0.0
2014-Oct-30 22:34N 37°48' W 122°24'3 3.1
2014-Oct-30 21:34N 37°46' W 122°21'3 3.1
2014-Oct-30 20:33N 37°48' W 122°24'0 0.0
2014-Oct-30 19:33N 37°48' W 122°24'0 0.0
2014-Oct-30 18:33N 37°48' W 122°24'5 5.3
2014-Oct-30 17:33N 37°48' W 122°30'4 4.2
2014-Oct-30 16:33N 37°49' W 122°25'5 5.1
2014-Oct-30 15:33N 37°49' W 122°19'5 4.7
2014-Oct-30 14:33N 37°49' W 122°25'5 5.4
2014-Oct-30 13:34N 37°44' W 122°21'4 4.3
2014-Oct-30 12:33N 37°48' W 122°24'1 1.1
2014-Oct-30 11:33N 37°48' W 122°22'9 9.1
2014-Oct-30 10:33N 37°47' W 122°34'8 8.0
2014-Oct-30 09:34N 37°48' W 122°24'0 0.0
2014-Oct-30 08:33N 37°48' W 122°24'0 0.0
2014-Oct-30 07:33N 37°48' W 122°24'3 3.4
2014-Oct-30 06:34N 37°45' W 122°21'3 3.4
2014-Oct-30 05:33N 37°48' W 122°24'0 0.0
2014-Oct-30 04:33N 37°48' W 122°24'3 2.7
2014-Oct-30 03:34N 37°49' W 122°20'1515.4
2014-Oct-30 02:33N 37°46' W 122°40'1616.2
2014-Oct-30 01:34N 37°49' W 122°19'4 3.6
2014-Oct-30 00:33N 37°48' W 122°24'5 4.7
2014-Oct-29 23:33N 37°48' W 122°18'3 3.2
2014-Oct-29 22:34N 37°46' W 122°21'3 2.7
2014-Oct-29 21:33N 37°48' W 122°24'0 0.0
2014-Oct-29 20:33N 37°48' W 122°24'0 0.0
2014-Oct-29 19:33N 37°48' W 122°24'0 0.0
2014-Oct-29 18:33N 37°48' W 122°24'0 0.0
2014-Oct-29 17:15N 37°48' W 122°24'0 0.0
2014-Oct-29 16:34N 37°48' W 122°24'0 0.0
2014-Oct-29 15:33N 37°48' W 122°24'0 0.0
2014-Oct-29 14:33N 37°48' W 122°24'0 0.0
2014-Oct-29 13:33N 37°48' W 122°24'0 0.0
2014-Oct-29 12:33N 37°48' W 122°24'0 0.0
2014-Oct-29 11:34N 37°48' W 122°24'1 1.2
2014-Oct-29 10:33N 37°47' W 122°23'1 1.2
2014-Oct-29 09:33N 37°48' W 122°24'0 0.0
2014-Oct-29 08:32N 37°48' W 122°24'3 2.9
2014-Oct-29 07:33N 37°49' W 122°20'3 2.9
2014-Oct-29 06:33N 37°48' W 122°24'0 0.0
2014-Oct-29 05:33N 37°48' W 122°24'0 0.0
2014-Oct-29 04:33N 37°48' W 122°24'0 0.0
2014-Oct-29 03:33N 37°48' W 122°24'2 1.6
2014-Oct-29 02:34N 37°47' W 122°22'2 1.6
2014-Oct-29 01:33N 37°48' W 122°24'1 0.6
2014-Oct-29 00:34N 37°48' W 122°23'1 0.7
2014-Oct-28 23:33N 37°49' W 122°23'1 1.1
2014-Oct-28 22:33N 37°48' W 122°24'0 0.0
2014-Oct-28 21:33N 37°48' W 122°24'0 0.0
2014-Oct-28 20:33N 37°48' W 122°24'0 0.0
2014-Oct-28 19:33N 37°48' W 122°24'0 0.0
2014-Oct-28 18:33N 37°48' W 122°24'0 0.0
2014-Oct-28 17:33N 37°48' W 122°24'0 0.0
2014-Oct-28 16:33N 37°48' W 122°24'0 0.0
2014-Oct-28 15:33N 37°48' W 122°24'0 0.0
2014-Oct-28 14:33N 37°48' W 122°24'2 1.8
2014-Oct-28 13:33N 37°47' W 122°22'2 1.8
2014-Oct-28 12:33N 37°48' W 122°24'0 0.0
2014-Oct-28 11:33N 37°48' W 122°24'0 0.0
2014-Oct-28 10:33N 37°48' W 122°24'0 0.0
2014-Oct-28 09:33N 37°48' W 122°24'2 2.1
2014-Oct-28 08:33N 37°48' W 122°21'2 1.8
2014-Oct-28 07:33N 37°48' W 122°23'0 0.4
2014-Oct-28 06:33N 37°48' W 122°24'0 0.0
2014-Oct-28 05:33N 37°48' W 122°24'0 0.0
2014-Oct-28 04:33N 37°48' W 122°24'3 2.8
2014-Oct-28 03:34N 37°49' W 122°20'3 2.6
2014-Oct-28 02:33N 37°46' W 122°22'8 7.6
2014-Oct-28 01:33N 37°48' W 122°31'4 3.9
2014-Oct-28 00:34N 37°49' W 122°26'4 3.8
2014-Oct-27 23:33N 37°48' W 122°22'3 2.9
2014-Oct-27 22:33N 37°49' W 122°25'5 5.0
2014-Oct-27 21:33N 37°48' W 122°31'8 7.9
2014-Oct-27 20:33N 37°48' W 122°21'2 1.9
2014-Oct-27 19:34N 37°48' W 122°24'2 2.0
2014-Oct-27 18:33N 37°47' W 122°21'3 3.2
2014-Oct-27 17:33N 37°49' W 122°25'2 1.6
2014-Oct-27 16:34N 37°48' W 122°23'0 0.3
2014-Oct-27 15:33N 37°48' W 122°24'0 0.0
2014-Oct-27 14:34N 37°48' W 122°24'0 0.0
2014-Oct-27 13:34N 37°48' W 122°24'2 2.4
2014-Oct-27 12:33N 37°48' W 122°21'2 2.4
2014-Oct-27 11:33N 37°48' W 122°24'0 0.0
2014-Oct-27 10:33N 37°48' W 122°24'0 0.0
2014-Oct-27 09:33N 37°48' W 122°24'5 4.8
2014-Oct-27 08:33N 37°44' W 122°20'5 4.8
2014-Oct-27 07:33N 37°48' W 122°24'0 0.0
2014-Oct-27 06:33N 37°48' W 122°24'2 2.1
2014-Oct-27 05:33N 37°48' W 122°21'2 2.1
2014-Oct-27 04:33N 37°48' W 122°24'2 2.5
2014-Oct-27 03:33N 37°46' W 122°22'2 2.5
2014-Oct-27 02:33N 37°48' W 122°24'3 2.8
2014-Oct-27 01:34N 37°48' W 122°20'3 2.8
2014-Oct-27 00:34N 37°48' W 122°24'0 0.0
2014-Oct-26 23:33N 37°48' W 122°24'2 1.9
2014-Oct-26 22:34N 37°48' W 122°21'2 1.9
2014-Oct-26 21:33N 37°48' W 122°24'3 3.2
2014-Oct-26 20:33N 37°48' W 122°20'3 3.2
2014-Oct-26 19:33N 37°48' W 122°24'0 0.0
2014-Oct-26 18:33N 37°48' W 122°24'0 0.0
2014-Oct-26 17:33N 37°48' W 122°24'0 0.0
2014-Oct-26 16:33N 37°48' W 122°24'0 0.0
2014-Oct-26 15:34N 37°48' W 122°24'0 0.0
2014-Oct-26 14:33N 37°48' W 122°24'3 2.5
2014-Oct-26 13:34N 37°48' W 122°21'3 2.5
2014-Oct-26 12:34N 37°48' W 122°24'0 0.0
2014-Oct-26 11:34N 37°48' W 122°24'0 0.0
2014-Oct-26 10:34N 37°48' W 122°24'0 0.0
2014-Oct-26 09:34N 37°48' W 122°24'0 0.0
2014-Oct-26 08:33N 37°48' W 122°24'1 1.0
2014-Oct-26 07:34N 37°47' W 122°23'1 1.0
2014-Oct-26 06:33N 37°48' W 122°24'3 3.4
2014-Oct-26 05:33N 37°46' W 122°21'3 3.4
2014-Oct-26 04:33N 37°48' W 122°24'0 0.0
2014-Oct-26 03:33N 37°48' W 122°24'3 3.2
2014-Oct-26 02:33N 37°48' W 122°20'2 1.8
2014-Oct-26 01:33N 37°48' W 122°22'1 1.4
2014-Oct-26 00:34N 37°49' W 122°20'3 2.9
2014-Oct-25 23:34N 37°48' W 122°24'0 0.4
2014-Oct-25 22:33N 37°48' W 122°24'0 0.4
2014-Oct-25 21:34N 37°48' W 122°24'0 0.0
2014-Oct-25 20:34N 37°48' W 122°24'3 3.4
2014-Oct-25 19:34N 37°46' W 122°20'3 3.4
2014-Oct-25 18:33N 37°48' W 122°24'0 0.0
2014-Oct-25 17:33N 37°48' W 122°24'1 1.3
2014-Oct-25 16:34N 37°49' W 122°25'1 1.3
2014-Oct-25 15:33N 37°48' W 122°24'0 0.0
2014-Oct-25 14:33N 37°48' W 122°24'0 0.0
2014-Oct-25 13:33N 37°48' W 122°24'0 0.0
2014-Oct-25 12:33N 37°48' W 122°24'3 3.4
2014-Oct-25 11:34N 37°46' W 122°21'3 3.4
2014-Oct-25 10:33N 37°48' W 122°24'4 3.7
2014-Oct-25 09:33N 37°46' W 122°20'4 3.7
2014-Oct-25 08:34N 37°48' W 122°24'0 0.0
2014-Oct-25 07:34N 37°48' W 122°24'0 0.0
2014-Oct-25 06:33N 37°48' W 122°24'0 0.0
2014-Oct-25 05:34N 37°48' W 122°24'0 0.1
2014-Oct-25 04:33N 37°48' W 122°24'0 0.0
2014-Oct-25 03:33N 37°48' W 122°24'3 3.2
2014-Oct-25 02:33N 37°46' W 122°20'1110.8
2014-Oct-25 01:34N 37°47' W 122°34'8 8.1
2014-Oct-25 00:34N 37°48' W 122°24'1 0.6
2014-Oct-24 23:33N 37°49' W 122°24'1 0.6
2014-Oct-24 22:34N 37°48' W 122°24'0 0.0
2014-Oct-24 21:33N 37°48' W 122°24'0 0.0
2014-Oct-24 20:33N 37°48' W 122°24'0 0.0
2014-Oct-24 19:33N 37°48' W 122°24'0 0.0
2014-Oct-24 18:33N 37°48' W 122°24'1110.8
2014-Oct-24 17:34N 37°46' W 122°37'1212.2
2014-Oct-24 16:33N 37°46' W 122°22'2 2.3
2014-Oct-24 15:33N 37°48' W 122°21'4 3.8
2014-Oct-24 14:33N 37°44' W 122°21'4 3.8
2014-Oct-24 13:33N 37°48' W 122°19'4 4.0
2014-Oct-24 12:33N 37°48' W 122°24'0 0.0
2014-Oct-24 11:33N 37°48' W 122°24'0 0.0
2014-Oct-24 10:33N 37°48' W 122°24'0 0.0
2014-Oct-24 09:33N 37°48' W 122°24'0 0.0
2014-Oct-24 08:33N 37°48' W 122°24'0 0.0
2014-Oct-24 07:33N 37°48' W 122°24'0 0.0
2014-Oct-24 06:33N 37°48' W 122°24'0 0.0
2014-Oct-24 05:33N 37°48' W 122°24'0 0.0
2014-Oct-24 04:33N 37°48' W 122°24'1 1.0
2014-Oct-24 03:33N 37°47' W 122°23'1 1.0
2014-Oct-24 02:33N 37°48' W 122°24'4 3.8
2014-Oct-24 01:33N 37°49' W 122°19'4 3.8
2014-Oct-24 00:33N 37°48' W 122°24'2 2.4
2014-Oct-23 23:33N 37°48' W 122°21'7 7.3
2014-Oct-23 22:33N 37°48' W 122°30'5 4.9
2014-Oct-23 21:33N 37°49' W 122°24'1 0.7
2014-Oct-23 20:33N 37°48' W 122°24'3 3.3
2014-Oct-23 19:34N 37°51' W 122°26'1111.1
2014-Oct-23 18:33N 37°45' W 122°39'1212.2
2014-Oct-23 17:33N 37°48' W 122°24'0 0.0
2014-Oct-23 16:33N 37°48' W 122°24'1 1.2
2014-Oct-23 15:32N 37°49' W 122°25'7 6.5
2014-Oct-23 14:26N 37°47' W 122°34'1213.6
2014-Oct-23 13:33N 37°48' W 122°19'2 2.1
2014-Oct-23 12:33N 37°47' W 122°21'2 1.6
2014-Oct-23 11:33N 37°48' W 122°21'1110.7
2014-Oct-23 10:33N 37°47' W 122°35'9 8.8
2014-Oct-23 09:33N 37°48' W 122°24'2 1.9
2014-Oct-23 08:33N 37°48' W 122°21'2 1.9
2014-Oct-23 07:33N 37°48' W 122°24'0 0.0
2014-Oct-23 06:33N 37°48' W 122°24'0 0.0
2014-Oct-23 05:33N 37°48' W 122°24'0 0.0
2014-Oct-23 04:34N 37°48' W 122°24'0 0.0
2014-Oct-23 03:33N 37°48' W 122°24'7 7.3
2014-Oct-23 02:33N 37°47' W 122°33'10 9.6
2014-Oct-23 01:33N 37°46' W 122°21'1 0.6
2014-Oct-23 00:33N 37°47' W 122°22'3 3.4
2014-Oct-22 23:34N 37°49' W 122°24'9 8.9
2014-Oct-22 22:33N 37°46' W 122°35'8 8.4
2014-Oct-22 21:33N 37°49' W 122°25'2 2.2
2014-Oct-22 20:33N 37°48' W 122°23'1 1.0
2014-Oct-22 19:33N 37°48' W 122°24'1 1.5
2014-Oct-22 18:33N 37°48' W 122°22'1 1.2
2014-Oct-22 17:33N 37°47' W 122°22'2 1.5
2014-Oct-22 16:33N 37°48' W 122°24'0 0.0
2014-Oct-22 15:34N 37°48' W 122°24'8 7.8
2014-Oct-22 14:33N 37°47' W 122°34'8 7.8
2014-Oct-22 13:33N 37°48' W 122°24'0 0.0
2014-Oct-22 12:33N 37°48' W 122°24'1 1.3
2014-Oct-22 11:34N 37°47' W 122°22'  

Dump ship's entire track history